sensor_id;sensor_type;location;lat;lon;timestamp;P1;durP1;ratioP1;P2;durP2;ratioP2
52440;SDS011;39611;46.062;8.950;2022-10-04T00:00:25;2.10;;;0.60;;
52440;SDS011;39611;46.062;8.950;2022-10-04T00:03:05;1.55;;;0.40;;
52440;SDS011;39611;46.062;8.950;2022-10-04T00:05:35;1.00;;;0.45;;
52440;SDS011;39611;46.062;8.950;2022-10-04T00:10:59;2.40;;;0.50;;
52440;SDS011;39611;46.062;8.950;2022-10-04T00:13:32;2.25;;;0.70;;
52440;SDS011;39611;46.062;8.950;2022-10-04T00:16:01;3.33;;;0.60;;
52440;SDS011;39611;46.062;8.950;2022-10-04T00:18:30;1.20;;;0.70;;
52440;SDS011;39611;46.062;8.950;2022-10-04T00:21:09;1.98;;;0.52;;
52440;SDS011;39611;46.062;8.950;2022-10-04T00:26:03;1.27;;;0.73;;
52440;SDS011;39611;46.062;8.950;2022-10-04T00:31:06;1.90;;;1.30;;
52440;SDS011;39611;46.062;8.950;2022-10-04T00:36:36;4.53;;;1.05;;
52440;SDS011;39611;46.062;8.950;2022-10-04T00:41:33;4.35;;;0.98;;
52440;SDS011;39611;46.062;8.950;2022-10-04T00:44:04;1.20;;;1.00;;
52440;SDS011;39611;46.062;8.950;2022-10-04T00:46:41;2.28;;;1.00;;
52440;SDS011;39611;46.062;8.950;2022-10-04T00:49:10;1.45;;;0.95;;
52440;SDS011;39611;46.062;8.950;2022-10-04T00:54:57;3.53;;;1.10;;
52440;SDS011;39611;46.062;8.950;2022-10-04T00:57:04;2.60;;;1.00;;
52440;SDS011;39611;46.062;8.950;2022-10-04T00:59:52;3.35;;;1.17;;
52440;SDS011;39611;46.062;8.950;2022-10-04T01:02:34;3.65;;;1.80;;
52440;SDS011;39611;46.062;8.950;2022-10-04T01:05:12;7.47;;;1.80;;
52440;SDS011;39611;46.062;8.950;2022-10-04T01:07:47;3.95;;;1.60;;
52440;SDS011;39611;46.062;8.950;2022-10-04T01:10:26;2.55;;;1.10;;
52440;SDS011;39611;46.062;8.950;2022-10-04T01:13:03;2.97;;;1.20;;
52440;SDS011;39611;46.062;8.950;2022-10-04T01:26:40;3.80;;;0.80;;
52440;SDS011;39611;46.062;8.950;2022-10-04T01:29:12;2.25;;;0.80;;
52440;SDS011;39611;46.062;8.950;2022-10-04T01:31:45;3.03;;;0.90;;
52440;SDS011;39611;46.062;8.950;2022-10-04T01:34:14;3.08;;;0.88;;
52440;SDS011;39611;46.062;8.950;2022-10-04T01:36:48;4.32;;;1.13;;
52440;SDS011;39611;46.062;8.950;2022-10-04T01:39:19;2.53;;;1.08;;
52440;SDS011;39611;46.062;8.950;2022-10-04T01:41:55;2.17;;;0.90;;
52440;SDS011;39611;46.062;8.950;2022-10-04T01:47:12;2.75;;;0.80;;
52440;SDS011;39611;46.062;8.950;2022-10-04T01:49:42;1.13;;;0.73;;
52440;SDS011;39611;46.062;8.950;2022-10-04T01:54:39;2.03;;;0.73;;
52440;SDS011;39611;46.062;8.950;2022-10-04T01:57:13;3.28;;;0.90;;
52440;SDS011;39611;46.062;8.950;2022-10-04T01:59:59;3.55;;;0.80;;
52440;SDS011;39611;46.062;8.950;2022-10-04T02:02:32;5.85;;;1.30;;
52440;SDS011;39611;46.062;8.950;2022-10-04T02:05:07;5.45;;;1.40;;
52440;SDS011;39611;46.062;8.950;2022-10-04T02:07:37;5.38;;;1.27;;
52440;SDS011;39611;46.062;8.950;2022-10-04T02:10:08;7.85;;;1.30;;
52440;SDS011;39611;46.062;8.950;2022-10-04T02:12:38;3.20;;;1.10;;
52440;SDS011;39611;46.062;8.950;2022-10-04T02:15:11;5.75;;;1.33;;
52440;SDS011;39611;46.062;8.950;2022-10-04T02:17:42;1.90;;;1.20;;
52440;SDS011;39611;46.062;8.950;2022-10-04T02:20:13;3.70;;;2.00;;
52440;SDS011;39611;46.062;8.950;2022-10-04T02:22:48;5.50;;;1.30;;
52440;SDS011;39611;46.062;8.950;2022-10-04T02:25:20;5.05;;;1.35;;
52440;SDS011;39611;46.062;8.950;2022-10-04T02:27:47;4.63;;;2.00;;
52440;SDS011;39611;46.062;8.950;2022-10-04T02:30:18;4.65;;;1.50;;
52440;SDS011;39611;46.062;8.950;2022-10-04T02:32:45;8.45;;;2.60;;
52440;SDS011;39611;46.062;8.950;2022-10-04T02:40:55;9.80;;;3.72;;
52440;SDS011;39611;46.062;8.950;2022-10-04T02:43:24;6.03;;;2.28;;
52440;SDS011;39611;46.062;8.950;2022-10-04T02:46:06;4.65;;;1.70;;
52440;SDS011;39611;46.062;8.950;2022-10-04T02:51:22;6.72;;;1.60;;
52440;SDS011;39611;46.062;8.950;2022-10-04T02:54:04;5.80;;;2.15;;
52440;SDS011;39611;46.062;8.950;2022-10-04T02:56:32;5.68;;;2.38;;
52440;SDS011;39611;46.062;8.950;2022-10-04T02:59:03;5.22;;;2.20;;
52440;SDS011;39611;46.062;8.950;2022-10-04T03:01:39;5.68;;;2.25;;
52440;SDS011;39611;46.062;8.950;2022-10-04T03:04:10;4.22;;;2.10;;
52440;SDS011;39611;46.062;8.950;2022-10-04T03:06:40;7.30;;;2.60;;
52440;SDS011;39611;46.062;8.950;2022-10-04T03:09:08;5.60;;;2.03;;
52440;SDS011;39611;46.062;8.950;2022-10-04T03:11:35;5.90;;;1.92;;
52440;SDS011;39611;46.062;8.950;2022-10-04T03:14:11;5.38;;;1.83;;
52440;SDS011;39611;46.062;8.950;2022-10-04T03:16:41;5.75;;;2.10;;
52440;SDS011;39611;46.062;8.950;2022-10-04T03:19:10;4.43;;;2.13;;
52440;SDS011;39611;46.062;8.950;2022-10-04T03:21:39;5.15;;;2.20;;
52440;SDS011;39611;46.062;8.950;2022-10-04T03:24:09;7.07;;;2.05;;
52440;SDS011;39611;46.062;8.950;2022-10-04T03:26:54;3.65;;;2.13;;
52440;SDS011;39611;46.062;8.950;2022-10-04T03:29:25;7.85;;;1.85;;
52440;SDS011;39611;46.062;8.950;2022-10-04T03:31:54;4.93;;;2.03;;
52440;SDS011;39611;46.062;8.950;2022-10-04T03:34:26;2.95;;;1.73;;
52440;SDS011;39611;46.062;8.950;2022-10-04T03:36:58;4.95;;;1.77;;
52440;SDS011;39611;46.062;8.950;2022-10-04T03:39:28;5.22;;;1.42;;
52440;SDS011;39611;46.062;8.950;2022-10-04T03:42:02;2.35;;;1.35;;
52440;SDS011;39611;46.062;8.950;2022-10-04T03:44:32;3.17;;;1.38;;
52440;SDS011;39611;46.062;8.950;2022-10-04T03:46:59;20.15;;;1.95;;
52440;SDS011;39611;46.062;8.950;2022-10-04T03:49:30;5.03;;;2.00;;
52440;SDS011;39611;46.062;8.950;2022-10-04T03:51:58;2.45;;;1.27;;
52440;SDS011;39611;46.062;8.950;2022-10-04T03:54:26;4.85;;;0.93;;
52440;SDS011;39611;46.062;8.950;2022-10-04T03:56:54;3.08;;;1.30;;
52440;SDS011;39611;46.062;8.950;2022-10-04T03:59:23;3.88;;;1.27;;
52440;SDS011;39611;46.062;8.950;2022-10-04T04:04:47;3.08;;;1.30;;
52440;SDS011;39611;46.062;8.950;2022-10-04T04:10:29;7.68;;;1.70;;
52440;SDS011;39611;46.062;8.950;2022-10-04T04:15:40;4.85;;;2.28;;
52440;SDS011;39611;46.062;8.950;2022-10-04T04:18:13;5.78;;;1.73;;
52440;SDS011;39611;46.062;8.950;2022-10-04T04:20:44;5.72;;;2.47;;
52440;SDS011;39611;46.062;8.950;2022-10-04T04:25:41;7.45;;;2.30;;
52440;SDS011;39611;46.062;8.950;2022-10-04T04:28:20;3.55;;;2.25;;
52440;SDS011;39611;46.062;8.950;2022-10-04T04:30:50;8.27;;;2.45;;
52440;SDS011;39611;46.062;8.950;2022-10-04T04:33:27;3.97;;;1.83;;
52440;SDS011;39611;46.062;8.950;2022-10-04T04:36:03;8.18;;;1.77;;
52440;SDS011;39611;46.062;8.950;2022-10-04T04:38:31;7.85;;;4.40;;
52440;SDS011;39611;46.062;8.950;2022-10-04T04:40:58;10.88;;;4.65;;
52440;SDS011;39611;46.062;8.950;2022-10-04T04:43:34;14.43;;;8.48;;
52440;SDS011;39611;46.062;8.950;2022-10-04T04:46:01;34.67;;;13.98;;
52440;SDS011;39611;46.062;8.950;2022-10-04T04:48:53;17.40;;;8.52;;
52440;SDS011;39611;46.062;8.950;2022-10-04T04:51:26;9.10;;;4.65;;
52440;SDS011;39611;46.062;8.950;2022-10-04T04:53:54;8.50;;;4.50;;
52440;SDS011;39611;46.062;8.950;2022-10-04T04:56:22;7.57;;;3.40;;
52440;SDS011;39611;46.062;8.950;2022-10-04T04:58:53;7.10;;;2.80;;
52440;SDS011;39611;46.062;8.950;2022-10-04T05:04:01;4.57;;;2.35;;
52440;SDS011;39611;46.062;8.950;2022-10-04T05:09:30;4.50;;;2.53;;
52440;SDS011;39611;46.062;8.950;2022-10-04T05:12:07;4.90;;;2.22;;
52440;SDS011;39611;46.062;8.950;2022-10-04T05:14:44;8.68;;;2.80;;
52440;SDS011;39611;46.062;8.950;2022-10-04T05:17:18;5.32;;;2.22;;
52440;SDS011;39611;46.062;8.950;2022-10-04T05:19:47;5.35;;;2.20;;
52440;SDS011;39611;46.062;8.950;2022-10-04T05:22:16;5.30;;;2.50;;
52440;SDS011;39611;46.062;8.950;2022-10-04T05:24:47;7.50;;;3.13;;
52440;SDS011;39611;46.062;8.950;2022-10-04T05:30:07;6.45;;;3.58;;
52440;SDS011;39611;46.062;8.950;2022-10-04T05:32:38;6.63;;;3.17;;
52440;SDS011;39611;46.062;8.950;2022-10-04T05:35:16;7.65;;;3.60;;
52440;SDS011;39611;46.062;8.950;2022-10-04T05:38:02;6.55;;;2.83;;
52440;SDS011;39611;46.062;8.950;2022-10-04T05:40:38;12.05;;;3.08;;
52440;SDS011;39611;46.062;8.950;2022-10-04T05:43:24;6.25;;;3.17;;
52440;SDS011;39611;46.062;8.950;2022-10-04T05:48:40;7.95;;;3.45;;
52440;SDS011;39611;46.062;8.950;2022-10-04T05:51:18;9.00;;;3.80;;
52440;SDS011;39611;46.062;8.950;2022-10-04T05:53:54;7.50;;;4.05;;
52440;SDS011;39611;46.062;8.950;2022-10-04T06:10:07;7.93;;;3.13;;
52440;SDS011;39611;46.062;8.950;2022-10-04T06:15:52;509.23;;;266.88;;
52440;SDS011;39611;46.062;8.950;2022-10-04T06:24:03;77.13;;;16.33;;
52440;SDS011;39611;46.062;8.950;2022-10-04T06:26:38;42.05;;;7.63;;
52440;SDS011;39611;46.062;8.950;2022-10-04T06:29:13;35.95;;;6.10;;
52440;SDS011;39611;46.062;8.950;2022-10-04T06:31:50;16.80;;;4.03;;
52440;SDS011;39611;46.062;8.950;2022-10-04T06:37:43;11.40;;;6.10;;
52440;SDS011;39611;46.062;8.950;2022-10-04T06:46:48;9.88;;;3.00;;
52440;SDS011;39611;46.062;8.950;2022-10-04T06:52:24;18.17;;;4.03;;
52440;SDS011;39611;46.062;8.950;2022-10-04T06:55:38;15.93;;;4.28;;
52440;SDS011;39611;46.062;8.950;2022-10-04T06:57:49;9.25;;;3.15;;
52440;SDS011;39611;46.062;8.950;2022-10-04T07:00:40;11.88;;;2.92;;
52440;SDS011;39611;46.062;8.950;2022-10-04T07:03:30;9.63;;;2.88;;
52440;SDS011;39611;46.062;8.950;2022-10-04T07:06:05;5.72;;;2.40;;
52440;SDS011;39611;46.062;8.950;2022-10-04T07:08:46;8.60;;;2.97;;
52440;SDS011;39611;46.062;8.950;2022-10-04T07:14:00;6.65;;;2.78;;
52440;SDS011;39611;46.062;8.950;2022-10-04T07:16:46;12.73;;;2.10;;
52440;SDS011;39611;46.062;8.950;2022-10-04T07:24:26;26.02;;;7.13;;
52440;SDS011;39611;46.062;8.950;2022-10-04T07:27:06;8.20;;;2.08;;
52440;SDS011;39611;46.062;8.950;2022-10-04T07:29:36;8.02;;;2.30;;
52440;SDS011;39611;46.062;8.950;2022-10-04T07:32:12;5.47;;;2.03;;
52440;SDS011;39611;46.062;8.950;2022-10-04T07:34:57;8.05;;;2.08;;
52440;SDS011;39611;46.062;8.950;2022-10-04T07:40:21;4.25;;;2.15;;
52440;SDS011;39611;46.062;8.950;2022-10-04T07:43:05;8.45;;;2.55;;
52440;SDS011;39611;46.062;8.950;2022-10-04T07:45:38;10.25;;;2.28;;
52440;SDS011;39611;46.062;8.950;2022-10-04T07:48:13;5.35;;;1.60;;
52440;SDS011;39611;46.062;8.950;2022-10-04T07:50:54;6.80;;;1.83;;
52440;SDS011;39611;46.062;8.950;2022-10-04T07:53:45;8.80;;;2.30;;
52440;SDS011;39611;46.062;8.950;2022-10-04T08:02:15;75.88;;;9.50;;
52440;SDS011;39611;46.062;8.950;2022-10-04T08:07:46;47.22;;;6.32;;
52440;SDS011;39611;46.062;8.950;2022-10-04T08:10:38;52.97;;;4.80;;
52440;SDS011;39611;46.062;8.950;2022-10-04T08:15:39;43.38;;;5.15;;
52440;SDS011;39611;46.062;8.950;2022-10-04T08:32:03;8.73;;;2.45;;
52440;SDS011;39611;46.062;8.950;2022-10-04T08:34:52;272.95;;;131.20;;
52440;SDS011;39611;46.062;8.950;2022-10-04T08:46:28;9.10;;;1.63;;
52440;SDS011;39611;46.062;8.950;2022-10-04T09:25:54;5.63;;;0.90;;
52440;SDS011;39611;46.062;8.950;2022-10-04T09:31:14;4.53;;;2.20;;
52440;SDS011;39611;46.062;8.950;2022-10-04T09:42:13;1.45;;;0.60;;
52440;SDS011;39611;46.062;8.950;2022-10-04T10:03:39;4.03;;;1.05;;
52440;SDS011;39611;46.062;8.950;2022-10-04T10:11:58;4.25;;;0.90;;
52440;SDS011;39611;46.062;8.950;2022-10-04T10:15:23;4.78;;;1.10;;
52440;SDS011;39611;46.062;8.950;2022-10-04T10:18:07;4.28;;;1.58;;
52440;SDS011;39611;46.062;8.950;2022-10-04T10:20:54;3.95;;;1.20;;
52440;SDS011;39611;46.062;8.950;2022-10-04T10:43:34;5.53;;;1.45;;
52440;SDS011;39611;46.062;8.950;2022-10-04T10:46:24;5.88;;;1.17;;
52440;SDS011;39611;46.062;8.950;2022-10-04T10:49:12;8.65;;;1.23;;
52440;SDS011;39611;46.062;8.950;2022-10-04T11:11:47;9.32;;;3.00;;
52440;SDS011;39611;46.062;8.950;2022-10-04T11:14:34;9.98;;;5.15;;
52440;SDS011;39611;46.062;8.950;2022-10-04T11:34:15;22.85;;;8.57;;
52440;SDS011;39611;46.062;8.950;2022-10-04T11:39:52;45.17;;;12.57;;
52440;SDS011;39611;46.062;8.950;2022-10-04T11:48:09;26.48;;;11.90;;
52440;SDS011;39611;46.062;8.950;2022-10-04T11:53:50;21.02;;;11.30;;
52440;SDS011;39611;46.062;8.950;2022-10-04T11:56:57;24.10;;;11.35;;
52440;SDS011;39611;46.062;8.950;2022-10-04T11:59:47;21.40;;;10.13;;
52440;SDS011;39611;46.062;8.950;2022-10-04T12:13:57;18.77;;;10.30;;
52440;SDS011;39611;46.062;8.950;2022-10-04T12:36:53;23.10;;;9.38;;
52440;SDS011;39611;46.062;8.950;2022-10-04T12:39:42;25.40;;;10.68;;
52440;SDS011;39611;46.062;8.950;2022-10-04T12:42:28;132.20;;;16.75;;
52440;SDS011;39611;46.062;8.950;2022-10-04T12:45:22;26.80;;;10.55;;
52440;SDS011;39611;46.062;8.950;2022-10-04T12:51:08;18.75;;;8.88;;
52440;SDS011;39611;46.062;8.950;2022-10-04T12:54:02;19.33;;;9.15;;
52440;SDS011;39611;46.062;8.950;2022-10-04T12:57:12;19.40;;;8.50;;
52440;SDS011;39611;46.062;8.950;2022-10-04T12:59:48;14.27;;;8.90;;
52440;SDS011;39611;46.062;8.950;2022-10-04T13:16:15;18.98;;;10.20;;
52440;SDS011;39611;46.062;8.950;2022-10-04T13:25:21;22.25;;;11.32;;
52440;SDS011;39611;46.062;8.950;2022-10-04T13:33:23;30.55;;;12.52;;
52440;SDS011;39611;46.062;8.950;2022-10-04T13:36:00;16.50;;;11.50;;
52440;SDS011;39611;46.062;8.950;2022-10-04T13:41:08;21.00;;;9.85;;
52440;SDS011;39611;46.062;8.950;2022-10-04T13:46:25;18.50;;;10.52;;
52440;SDS011;39611;46.062;8.950;2022-10-04T13:49:13;19.15;;;9.52;;
52440;SDS011;39611;46.062;8.950;2022-10-04T13:57:50;12.30;;;8.13;;
52440;SDS011;39611;46.062;8.950;2022-10-04T14:00:31;15.05;;;8.40;;
52440;SDS011;39611;46.062;8.950;2022-10-04T14:17:41;20.42;;;9.27;;
52440;SDS011;39611;46.062;8.950;2022-10-04T14:26:13;16.38;;;7.78;;
52440;SDS011;39611;46.062;8.950;2022-10-04T14:31:57;12.63;;;7.70;;
52440;SDS011;39611;46.062;8.950;2022-10-04T14:57:03;13.95;;;8.65;;
52440;SDS011;39611;46.062;8.950;2022-10-04T15:00:06;18.35;;;8.68;;
52440;SDS011;39611;46.062;8.950;2022-10-04T15:08:50;15.50;;;8.68;;
52440;SDS011;39611;46.062;8.950;2022-10-04T15:11:07;17.23;;;9.20;;
52440;SDS011;39611;46.062;8.950;2022-10-04T15:13:50;16.25;;;10.23;;
52440;SDS011;39611;46.062;8.950;2022-10-04T15:16:32;19.42;;;9.73;;
52440;SDS011;39611;46.062;8.950;2022-10-04T15:24:23;15.30;;;9.48;;
52440;SDS011;39611;46.062;8.950;2022-10-04T15:27:01;14.38;;;8.45;;
52440;SDS011;39611;46.062;8.950;2022-10-04T15:37:58;14.52;;;7.70;;
52440;SDS011;39611;46.062;8.950;2022-10-04T15:56:35;17.30;;;9.35;;
52440;SDS011;39611;46.062;8.950;2022-10-04T16:01:53;15.75;;;8.82;;
52440;SDS011;39611;46.062;8.950;2022-10-04T16:07:42;13.43;;;7.40;;
52440;SDS011;39611;46.062;8.950;2022-10-04T16:15:20;10.27;;;7.03;;
52440;SDS011;39611;46.062;8.950;2022-10-04T16:23:36;541.33;;;367.33;;
52440;SDS011;39611;46.062;8.950;2022-10-04T16:26:10;607.95;;;408.23;;
52440;SDS011;39611;46.062;8.950;2022-10-04T16:28:54;712.70;;;489.17;;
52440;SDS011;39611;46.062;8.950;2022-10-04T16:31:43;423.88;;;221.82;;
52440;SDS011;39611;46.062;8.950;2022-10-04T16:37:19;64.78;;;33.40;;
52440;SDS011;39611;46.062;8.950;2022-10-04T16:46:02;158.20;;;66.35;;
52440;SDS011;39611;46.062;8.950;2022-10-04T16:56:26;19.20;;;9.75;;
52440;SDS011;39611;46.062;8.950;2022-10-04T16:58:58;17.45;;;9.40;;
52440;SDS011;39611;46.062;8.950;2022-10-04T17:06:34;14.32;;;8.75;;
52440;SDS011;39611;46.062;8.950;2022-10-04T17:17:31;13.00;;;8.57;;
52440;SDS011;39611;46.062;8.950;2022-10-04T17:23:37;216.27;;;92.93;;
52440;SDS011;39611;46.062;8.950;2022-10-04T17:38:19;20.88;;;10.55;;
52440;SDS011;39611;46.062;8.950;2022-10-04T17:49:22;18.02;;;12.18;;
52440;SDS011;39611;46.062;8.950;2022-10-04T17:52:40;18.60;;;11.85;;
52440;SDS011;39611;46.062;8.950;2022-10-04T17:55:42;20.15;;;11.48;;
52440;SDS011;39611;46.062;8.950;2022-10-04T17:58:57;20.83;;;10.88;;
52440;SDS011;39611;46.062;8.950;2022-10-04T18:01:27;18.17;;;11.25;;
52440;SDS011;39611;46.062;8.950;2022-10-04T18:06:50;19.13;;;10.82;;
52440;SDS011;39611;46.062;8.950;2022-10-04T18:09:32;17.92;;;10.75;;
52440;SDS011;39611;46.062;8.950;2022-10-04T18:14:59;19.85;;;12.60;;
52440;SDS011;39611;46.062;8.950;2022-10-04T18:17:43;23.60;;;12.73;;
52440;SDS011;39611;46.062;8.950;2022-10-04T18:20:32;21.02;;;11.15;;
52440;SDS011;39611;46.062;8.950;2022-10-04T18:23:28;15.52;;;10.27;;
52440;SDS011;39611;46.062;8.950;2022-10-04T18:26:16;15.45;;;10.45;;
52440;SDS011;39611;46.062;8.950;2022-10-04T18:28:44;17.77;;;11.07;;
52440;SDS011;39611;46.062;8.950;2022-10-04T18:41:43;18.85;;;11.40;;
52440;SDS011;39611;46.062;8.950;2022-10-04T18:44:23;18.83;;;11.57;;
52440;SDS011;39611;46.062;8.950;2022-10-04T18:46:55;18.95;;;12.35;;
52440;SDS011;39611;46.062;8.950;2022-10-04T18:49:28;24.23;;;12.95;;
52440;SDS011;39611;46.062;8.950;2022-10-04T18:52:01;24.55;;;13.20;;
52440;SDS011;39611;46.062;8.950;2022-10-04T19:00:08;24.55;;;14.63;;
52440;SDS011;39611;46.062;8.950;2022-10-04T19:03:01;22.85;;;13.88;;
52440;SDS011;39611;46.062;8.950;2022-10-04T19:05:48;23.90;;;13.73;;
52440;SDS011;39611;46.062;8.950;2022-10-04T19:08:42;20.80;;;14.23;;
52440;SDS011;39611;46.062;8.950;2022-10-04T19:11:22;23.63;;;13.98;;
52440;SDS011;39611;46.062;8.950;2022-10-04T19:14:09;22.98;;;14.48;;
52440;SDS011;39611;46.062;8.950;2022-10-04T19:17:00;23.42;;;15.02;;
52440;SDS011;39611;46.062;8.950;2022-10-04T19:22:34;18.92;;;13.65;;
52440;SDS011;39611;46.062;8.950;2022-10-04T19:25:18;23.48;;;14.23;;
52440;SDS011;39611;46.062;8.950;2022-10-04T19:28:02;20.13;;;13.50;;
52440;SDS011;39611;46.062;8.950;2022-10-04T19:30:40;20.83;;;13.00;;
52440;SDS011;39611;46.062;8.950;2022-10-04T19:35:55;20.80;;;12.82;;
52440;SDS011;39611;46.062;8.950;2022-10-04T19:44:21;23.38;;;13.52;;
52440;SDS011;39611;46.062;8.950;2022-10-04T19:47:15;21.77;;;14.88;;
52440;SDS011;39611;46.062;8.950;2022-10-04T19:50:17;24.70;;;15.00;;
52440;SDS011;39611;46.062;8.950;2022-10-04T19:55:25;36.60;;;21.55;;
52440;SDS011;39611;46.062;8.950;2022-10-04T20:00:47;40.67;;;23.25;;
52440;SDS011;39611;46.062;8.950;2022-10-04T20:03:14;40.13;;;23.13;;
52440;SDS011;39611;46.062;8.950;2022-10-04T20:05:45;36.08;;;22.13;;
52440;SDS011;39611;46.062;8.950;2022-10-04T20:08:14;38.15;;;22.80;;
52440;SDS011;39611;46.062;8.950;2022-10-04T20:10:42;35.55;;;20.75;;
52440;SDS011;39611;46.062;8.950;2022-10-04T20:26:06;29.83;;;20.75;;
52440;SDS011;39611;46.062;8.950;2022-10-04T20:31:07;30.60;;;20.02;;
52440;SDS011;39611;46.062;8.950;2022-10-04T20:36:07;27.38;;;16.58;;
52440;SDS011;39611;46.062;8.950;2022-10-04T20:38:48;27.40;;;16.33;;
52440;SDS011;39611;46.062;8.950;2022-10-04T20:43:57;22.15;;;15.27;;
52440;SDS011;39611;46.062;8.950;2022-10-04T20:46:34;23.00;;;16.08;;
52440;SDS011;39611;46.062;8.950;2022-10-04T20:49:15;24.92;;;17.60;;
52440;SDS011;39611;46.062;8.950;2022-10-04T20:51:49;27.95;;;17.80;;
52440;SDS011;39611;46.062;8.950;2022-10-04T20:54:19;27.45;;;18.35;;
52440;SDS011;39611;46.062;8.950;2022-10-04T20:56:48;24.02;;;15.55;;
52440;SDS011;39611;46.062;8.950;2022-10-04T20:59:15;23.48;;;15.48;;
52440;SDS011;39611;46.062;8.950;2022-10-04T21:01:58;23.58;;;14.93;;
52440;SDS011;39611;46.062;8.950;2022-10-04T21:04:29;22.02;;;13.20;;
52440;SDS011;39611;46.062;8.950;2022-10-04T21:07:07;19.30;;;13.13;;
52440;SDS011;39611;46.062;8.950;2022-10-04T21:09:38;19.40;;;12.98;;
52440;SDS011;39611;46.062;8.950;2022-10-04T21:12:23;20.27;;;13.07;;
52440;SDS011;39611;46.062;8.950;2022-10-04T21:18:00;20.40;;;14.52;;
52440;SDS011;39611;46.062;8.950;2022-10-04T21:20:47;23.00;;;14.23;;
52440;SDS011;39611;46.062;8.950;2022-10-04T21:23:30;23.10;;;14.45;;
52440;SDS011;39611;46.062;8.950;2022-10-04T21:28:51;22.08;;;13.23;;
52440;SDS011;39611;46.062;8.950;2022-10-04T21:31:19;25.73;;;13.48;;
52440;SDS011;39611;46.062;8.950;2022-10-04T21:33:45;23.70;;;13.85;;
52440;SDS011;39611;46.062;8.950;2022-10-04T21:36:12;21.00;;;13.63;;
52440;SDS011;39611;46.062;8.950;2022-10-04T21:38:38;21.75;;;14.00;;
52440;SDS011;39611;46.062;8.950;2022-10-04T21:41:05;19.98;;;12.65;;
52440;SDS011;39611;46.062;8.950;2022-10-04T21:43:32;21.98;;;13.75;;
52440;SDS011;39611;46.062;8.950;2022-10-04T21:45:59;20.70;;;14.55;;
52440;SDS011;39611;46.062;8.950;2022-10-04T21:48:26;25.27;;;14.32;;
52440;SDS011;39611;46.062;8.950;2022-10-04T21:50:53;23.65;;;13.55;;
52440;SDS011;39611;46.062;8.950;2022-10-04T21:53:20;22.60;;;14.02;;
52440;SDS011;39611;46.062;8.950;2022-10-04T21:55:47;21.83;;;12.80;;
52440;SDS011;39611;46.062;8.950;2022-10-04T21:58:14;22.98;;;14.45;;
52440;SDS011;39611;46.062;8.950;2022-10-04T22:00:41;20.38;;;13.77;;
52440;SDS011;39611;46.062;8.950;2022-10-04T22:03:07;23.33;;;15.10;;
52440;SDS011;39611;46.062;8.950;2022-10-04T22:05:34;19.13;;;12.95;;
52440;SDS011;39611;46.062;8.950;2022-10-04T22:08:00;21.27;;;13.23;;
52440;SDS011;39611;46.062;8.950;2022-10-04T22:10:27;17.17;;;12.23;;
52440;SDS011;39611;46.062;8.950;2022-10-04T22:12:53;22.25;;;13.75;;
52440;SDS011;39611;46.062;8.950;2022-10-04T22:15:23;23.20;;;12.95;;
52440;SDS011;39611;46.062;8.950;2022-10-04T22:17:50;19.08;;;13.35;;
52440;SDS011;39611;46.062;8.950;2022-10-04T22:20:17;18.75;;;12.48;;
52440;SDS011;39611;46.062;8.950;2022-10-04T22:22:44;20.02;;;12.13;;
52440;SDS011;39611;46.062;8.950;2022-10-04T22:25:14;18.67;;;12.30;;
52440;SDS011;39611;46.062;8.950;2022-10-04T22:27:43;20.63;;;12.30;;
52440;SDS011;39611;46.062;8.950;2022-10-04T22:30:16;18.80;;;11.93;;
52440;SDS011;39611;46.062;8.950;2022-10-04T22:32:46;15.43;;;11.45;;
52440;SDS011;39611;46.062;8.950;2022-10-04T22:35:16;19.35;;;11.57;;
52440;SDS011;39611;46.062;8.950;2022-10-04T22:37:44;17.38;;;11.70;;
52440;SDS011;39611;46.062;8.950;2022-10-04T22:40:16;18.20;;;11.32;;
52440;SDS011;39611;46.062;8.950;2022-10-04T22:42:50;16.17;;;11.50;;
52440;SDS011;39611;46.062;8.950;2022-10-04T22:45:23;17.08;;;11.35;;
52440;SDS011;39611;46.062;8.950;2022-10-04T22:50:28;15.98;;;11.60;;
52440;SDS011;39611;46.062;8.950;2022-10-04T22:52:57;17.70;;;11.45;;
52440;SDS011;39611;46.062;8.950;2022-10-04T22:55:28;15.98;;;11.15;;
52440;SDS011;39611;46.062;8.950;2022-10-04T22:57:54;17.27;;;11.20;;
52440;SDS011;39611;46.062;8.950;2022-10-04T23:00:21;16.55;;;10.93;;
52440;SDS011;39611;46.062;8.950;2022-10-04T23:02:47;16.92;;;10.95;;
52440;SDS011;39611;46.062;8.950;2022-10-04T23:05:15;14.68;;;10.45;;
52440;SDS011;39611;46.062;8.950;2022-10-04T23:07:44;14.32;;;10.35;;
52440;SDS011;39611;46.062;8.950;2022-10-04T23:10:12;15.27;;;10.32;;
52440;SDS011;39611;46.062;8.950;2022-10-04T23:12:42;14.20;;;10.30;;
52440;SDS011;39611;46.062;8.950;2022-10-04T23:15:17;14.20;;;10.10;;
52440;SDS011;39611;46.062;8.950;2022-10-04T23:17:47;16.83;;;10.20;;
52440;SDS011;39611;46.062;8.950;2022-10-04T23:20:19;16.80;;;10.43;;
52440;SDS011;39611;46.062;8.950;2022-10-04T23:22:46;11.93;;;9.32;;
52440;SDS011;39611;46.062;8.950;2022-10-04T23:27:45;14.43;;;9.95;;
52440;SDS011;39611;46.062;8.950;2022-10-04T23:30:16;14.18;;;10.02;;
52440;SDS011;39611;46.062;8.950;2022-10-04T23:32:46;15.85;;;9.73;;
52440;SDS011;39611;46.062;8.950;2022-10-04T23:35:23;14.68;;;9.55;;
52440;SDS011;39611;46.062;8.950;2022-10-04T23:37:55;16.27;;;10.45;;
52440;SDS011;39611;46.062;8.950;2022-10-04T23:40:22;14.45;;;9.95;;
52440;SDS011;39611;46.062;8.950;2022-10-04T23:42:50;13.23;;;9.27;;
52440;SDS011;39611;46.062;8.950;2022-10-04T23:45:20;13.63;;;8.82;;
52440;SDS011;39611;46.062;8.950;2022-10-04T23:47:50;12.07;;;9.02;;
52440;SDS011;39611;46.062;8.950;2022-10-04T23:50:29;12.35;;;9.23;;
52440;SDS011;39611;46.062;8.950;2022-10-04T23:53:00;13.38;;;9.77;;
52440;SDS011;39611;46.062;8.950;2022-10-04T23:55:35;17.33;;;9.90;;
52440;SDS011;39611;46.062;8.950;2022-10-04T23:58:13;12.20;;;9.60;;
